Terminal Aerodrome Forecast
Issued by NWS

Home | Current Version | Previous Version | Text Only | Print | Product List | Glossary On
Versions: 1 2 3 4 5 6 7 8 9 10 11 12 13 14 15 16 17 18 19 20 21 22 23 24 25
000
FTUS43 KDMX 061135
TAFMCW
TAF
KMCW 061135Z 0612/0712 27015G24KT P6SM SCT015 BKN070
     FM061600 27022G34KT P6SM BKN025
     FM070000 28016G24KT P6SM SCT035=

USA.gov is the U.S. government's official web portal to all federal, state and local government web resources and services.